East Ayton, United Kingdom
Current Conditions -  °F | °C
As of 8:50 AM on Sunday 21 Dec 2014 (Local Time) from EGXV Reporting Station
Broken Clouds Broken Clouds  
Wind Chill: 40°   Ceiling: 15000
Heat Index: 46°   Visibility: 6mi
Dew Point: 37°   Wind: 15mph
Humidity: 71%   Direction: 230°SW
Pressure: 30.12"   Gusts: NA
Location:  54.25°N, 0.47°W
Report Text: EGXV 210850Z AUTO 23013KT 9999 BKN150/// BKN190/// 08/03 Q1020
Loading
Personal Weather Stations






























Interactive Weather Map New forecast layout! Learn more

10-Day Weather Forecast

Advertisements
Track Severe Weather on mobile